Time;durP1;ratioP1;P1;durP2;ratioP2;P2;SDS_P1;SDS_P2;PMS_P1;PMS_P2;Temp;Humidity;BMP_temperature;BMP_pressure;BME280_temperature;BME280_humidity;BME280_pressure;Samples;Min_cycle;Max_cycle;Signal;HPM_P1;HPM_P2
2021/01/04 00:00:21;;;;;;;;;;;3.30;99.90;;;;;;5116354;28;19911;-85
2021/01/04 00:03:13;;;;;;;;;;;3.30;99.90;;;;;;5116410;28;20322;-86
2021/01/04 00:06:05;;;;;;;;;;;3.20;99.90;;;;;;5116024;28;20006;-86
2021/01/04 00:08:52;;;;;;;;;;;3.20;99.90;;;;;;5116076;28;20268;-85
2021/01/04 00:11:27;;;;;;;;;;;3.20;99.90;;;;;;5134137;28;19923;-85
2021/01/04 00:14:06;;;;;;;;;;;3.30;99.90;;;;;;5130362;28;19912;-85
2021/01/04 00:16:53;;;;;;;;;;;3.30;99.90;;;;;;5116029;28;19907;-85
2021/01/04 00:19:34;;;;;;;;;;;3.30;99.90;;;;;;5115560;28;20345;-85
2021/01/04 00:22:05;;;;;;;;;;;3.30;99.90;;;;;;5115503;28;19973;-85
2021/01/04 00:24:59;;;;;;;;;;;3.30;99.90;;;;;;5116003;28;19908;-85
2021/01/04 00:27:46;;;;;;;;;;;3.30;99.90;;;;;;5116191;28;19911;-85
2021/01/04 00:30:29;;;;;;;;;;;3.30;99.90;;;;;;5115689;28;19915;-85
2021/01/04 00:32:56;;;;;;;;;;;3.40;99.90;;;;;;5113634;28;19920;-85
2021/01/04 00:35:28;;;;;;;;;;;3.30;99.90;;;;;;5116097;28;19908;-85
2021/01/04 00:38:00;;;;;;;;;;;3.30;99.90;;;;;;5116093;28;19908;-87
2021/01/04 00:40:41;;;;;;;;;;;3.40;99.90;;;;;;5116024;28;19992;-85
2021/01/04 00:43:08;;;;;;;;;;;3.40;99.90;;;;;;5116966;28;19998;-85
2021/01/04 00:45:46;;;;;;;;;;;3.40;99.90;;;;;;5115897;28;19915;-85
2021/01/04 00:48:37;;;;;;;;;;;3.40;99.90;;;;;;5116423;28;19965;-85
2021/01/04 00:51:18;;;;;;;;;;;3.40;99.90;;;;;;5115540;28;19916;-85
2021/01/04 00:53:48;;;;;;;;;;;3.40;99.90;;;;;;5115790;28;20006;-86
2021/01/04 00:56:19;;;;;;;;;;;3.40;99.90;;;;;;5115570;28;20420;-85
2021/01/04 00:59:16;;;;;;;;;;;3.40;99.90;;;;;;5116870;28;19915;-85
2021/01/04 01:01:47;;;;;;;;;;;3.40;99.90;;;;;;5115967;28;19908;-85
2021/01/04 01:04:26;;;;;;;;;;;3.40;99.90;;;;;;5115424;28;19907;-85
2021/01/04 01:07:11;;;;;;;;;;;3.40;99.90;;;;;;5115047;28;19999;-86
2021/01/04 01:09:42;;;;;;;;;;;3.40;99.90;;;;;;5116030;28;19908;-85
2021/01/04 01:12:17;;;;;;;;;;;3.40;99.90;;;;;;5109221;28;20050;-85
2021/01/04 01:15:01;;;;;;;;;;;3.40;99.90;;;;;;5115170;28;19967;-85
2021/01/04 01:17:39;;;;;;;;;;;3.40;99.90;;;;;;5115993;28;19908;-86
2021/01/04 01:20:09;;;;;;;;;;;3.40;99.90;;;;;;5115259;28;20045;-86
2021/01/04 01:22:43;;;;;;;;;;;3.40;99.90;;;;;;5098289;28;19920;-85
2021/01/04 01:25:19;;;;;;;;;;;3.40;99.90;;;;;;5097551;28;19908;-85
2021/01/04 01:28:03;;;;;;;;;;;3.40;99.90;;;;;;5116041;28;19922;-85
2021/01/04 01:30:45;;;;;;;;;;;3.40;99.90;;;;;;5097846;28;19919;-85
2021/01/04 01:33:34;;;;;;;;;;;3.40;99.90;;;;;;5097471;28;19912;-85
2021/01/04 01:36:09;;;;;;;;;;;3.40;99.90;;;;;;5098154;28;19954;-86
2021/01/04 01:38:50;;;;;;;;;;;3.40;99.90;;;;;;5097375;28;19908;-85
2021/01/04 01:41:21;;;;;;;;;;;3.40;99.90;;;;;;5097841;28;19908;-85
2021/01/04 01:44:05;;;;;;;;;;;3.40;99.90;;;;;;5098179;28;20348;-85
2021/01/04 01:47:09;;;;;;;;;;;3.30;99.90;;;;;;5097726;28;20375;-84
2021/01/04 01:49:53;;;;;;;;;;;3.30;99.90;;;;;;5098057;28;19908;-85
2021/01/04 01:52:38;;;;;;;;;;;3.30;99.90;;;;;;5097526;28;19920;-85
2021/01/04 01:55:22;;;;;;;;;;;3.30;99.90;;;;;;5097243;28;19911;-85
2021/01/04 01:58:00;;;;;;;;;;;3.30;99.90;;;;;;5097757;28;19912;-86
2021/01/04 02:00:44;;;;;;;;;;;3.30;99.90;;;;;;5097242;28;19914;-86
2021/01/04 02:03:29;;;;;;;;;;;3.30;99.90;;;;;;5115403;28;19961;-86
2021/01/04 02:06:14;;;;;;;;;;;3.30;99.90;;;;;;5104214;28;19907;-85
2021/01/04 02:08:48;;;;;;;;;;;3.30;99.90;;;;;;5115182;28;19922;-85
2021/01/04 02:11:24;;;;;;;;;;;3.30;99.90;;;;;;5097027;28;19912;-85
2021/01/04 02:14:22;;;;;;;;;;;3.20;99.90;;;;;;5096886;28;20010;-86
2021/01/04 02:16:59;;;;;;;;;;;3.20;99.90;;;;;;5088987;28;19968;-85
2021/01/04 02:19:40;;;;;;;;;;;3.20;99.90;;;;;;5097005;28;20330;-85
2021/01/04 02:22:12;;;;;;;;;;;3.20;99.90;;;;;;5109504;28;20391;-86
2021/01/04 02:24:40;;;;;;;;;;;3.20;99.90;;;;;;5115090;28;19912;-85
2021/01/04 02:27:16;;;;;;;;;;;3.20;99.90;;;;;;5113777;28;19919;-85
2021/01/04 02:29:47;;;;;;;;;;;3.20;99.90;;;;;;5113869;28;19908;-85
2021/01/04 02:32:20;;;;;;;;;;;3.20;99.90;;;;;;5113689;28;19916;-85
2021/01/04 02:34:50;;;;;;;;;;;3.20;99.90;;;;;;5107866;28;20364;-86
2021/01/04 02:37:24;;;;;;;;;;;3.20;99.90;;;;;;5114939;28;20328;-85
2021/01/04 02:39:57;;;;;;;;;;;3.20;99.90;;;;;;5113230;28;19915;-85
2021/01/04 02:42:23;;;;;;;;;;;3.20;99.90;;;;;;5114816;28;19911;-85
2021/01/04 02:44:52;;;;;;;;;;;3.10;99.90;;;;;;5112718;28;19921;-85
2021/01/04 02:47:43;;;;;;;;;;;3.10;99.90;;;;;;5113351;28;19911;-85
2021/01/04 02:50:21;;;;;;;;;;;3.10;99.90;;;;;;5113345;28;19915;-85
2021/01/04 02:52:58;;;;;;;;;;;3.10;99.90;;;;;;5113501;28;19919;-85
2021/01/04 02:55:54;;;;;;;;;;;3.10;99.90;;;;;;5114392;28;19919;-85
2021/01/04 02:58:25;;;;;;;;;;;3.10;99.90;;;;;;5113406;28;19915;-85
2021/01/04 03:01:01;;;;;;;;;;;3.00;99.90;;;;;;5113189;28;19908;-84
2021/01/04 03:03:30;;;;;;;;;;;3.00;99.90;;;;;;5118551;27;19911;-85
2021/01/04 03:06:02;;;;;;;;;;;3.00;99.90;;;;;;5111560;28;20369;-85
2021/01/04 03:08:30;;;;;;;;;;;3.00;99.90;;;;;;5112748;28;19912;-85
2021/01/04 03:11:02;;;;;;;;;;;3.00;99.90;;;;;;5130131;28;19912;-85
2021/01/04 03:13:29;;;;;;;;;;;3.00;99.90;;;;;;5112960;28;19969;-85
2021/01/04 03:16:03;;;;;;;;;;;3.00;99.90;;;;;;5096563;28;19912;-84
2021/01/04 03:18:32;;;;;;;;;;;3.00;99.90;;;;;;5129699;28;20257;-85
2021/01/04 03:21:08;;;;;;;;;;;3.00;99.90;;;;;;5112330;28;19927;-85
2021/01/04 03:23:41;;;;;;;;;;;3.00;99.90;;;;;;5113043;28;19919;-85
2021/01/04 03:26:17;;;;;;;;;;;3.00;99.90;;;;;;5109832;28;19962;-85
2021/01/04 03:28:48;;;;;;;;;;;3.00;99.90;;;;;;5113110;28;20364;-85
2021/01/04 03:31:16;;;;;;;;;;;3.00;99.90;;;;;;5112775;28;19938;-85
2021/01/04 03:33:44;;;;;;;;;;;3.00;99.90;;;;;;5113356;28;19908;-85
2021/01/04 03:36:20;;;;;;;;;;;3.00;99.90;;;;;;5112785;28;19915;-86
2021/01/04 03:38:48;;;;;;;;;;;3.00;99.90;;;;;;5113213;28;19908;-86
2021/01/04 03:41:22;;;;;;;;;;;3.00;99.90;;;;;;5107526;28;19907;-85
2021/01/04 03:43:50;;;;;;;;;;;3.00;99.90;;;;;;5112501;28;20392;-85
2021/01/04 03:46:19;;;;;;;;;;;3.00;99.90;;;;;;5112622;28;19908;-85
2021/01/04 03:48:54;;;;;;;;;;;3.00;99.90;;;;;;5112931;28;19908;-85
2021/01/04 03:51:23;;;;;;;;;;;3.00;99.90;;;;;;5112718;28;19911;-86
2021/01/04 03:53:54;;;;;;;;;;;3.00;99.90;;;;;;5108899;28;20428;-86
2021/01/04 03:56:25;;;;;;;;;;;3.00;99.90;;;;;;5114379;28;19912;-85
2021/01/04 03:58:58;;;;;;;;;;;3.00;99.90;;;;;;5116767;28;19908;-85
2021/01/04 04:01:26;;;;;;;;;;;2.90;99.90;;;;;;5111021;28;19955;-85
2021/01/04 04:03:59;;;;;;;;;;;2.90;99.90;;;;;;5117699;28;19908;-85
2021/01/04 04:06:28;;;;;;;;;;;2.90;99.90;;;;;;5110965;28;19914;-85
2021/01/04 04:09:01;;;;;;;;;;;2.90;99.90;;;;;;5110834;28;20749;-84
2021/01/04 04:11:32;;;;;;;;;;;2.90;99.90;;;;;;5116393;28;19916;-84
2021/01/04 04:14:04;;;;;;;;;;;2.90;99.90;;;;;;5117520;28;19919;-85
2021/01/04 04:16:35;;;;;;;;;;;2.90;99.90;;;;;;5116179;28;19973;-84
2021/01/04 04:19:06;;;;;;;;;;;2.90;99.90;;;;;;5117142;28;19915;-85
2021/01/04 04:21:42;;;;;;;;;;;2.90;99.90;;;;;;5116107;28;19919;-84
2021/01/04 04:27:03;;;;;;;;;;;2.90;99.90;;;;;;5117255;28;20376;-85
2021/01/04 04:29:31;;;;;;;;;;;2.90;99.90;;;;;;5115922;28;19994;-85
2021/01/04 04:32:03;;;;;;;;;;;2.90;99.90;;;;;;5116617;28;20331;-85
2021/01/04 04:34:31;;;;;;;;;;;2.90;99.90;;;;;;5116064;28;19915;-85
2021/01/04 04:37:06;;;;;;;;;;;2.90;99.90;;;;;;5115846;28;19960;-85
2021/01/04 04:39:34;;;;;;;;;;;2.90;99.90;;;;;;5115727;28;19991;-85
2021/01/04 04:42:03;;;;;;;;;;;2.90;99.90;;;;;;5116796;28;19908;-85
2021/01/04 04:44:33;;;;;;;;;;;2.90;99.90;;;;;;5115706;28;19915;-85
2021/01/04 04:46:58;;;;;;;;;;;2.90;99.90;;;;;;5115713;28;19918;-85
2021/01/04 04:49:30;;;;;;;;;;;2.90;99.90;;;;;;5116788;28;19912;-85
2021/01/04 04:51:56;;;;;;;;;;;2.90;99.90;;;;;;5116862;28;19934;-85
2021/01/04 04:54:32;;;;;;;;;;;2.90;99.90;;;;;;5132557;27;19916;-85
2021/01/04 04:57:19;;;;;;;;;;;3.00;99.90;;;;;;5116733;27;19965;-85
2021/01/04 04:59:50;;;;;;;;;;;2.90;99.90;;;;;;5132831;27;19953;-85
2021/01/04 05:02:40;;;;;;;;;;;3.00;99.90;;;;;;5115580;28;19954;-85
2021/01/04 05:05:11;;;;;;;;;;;3.00;99.90;;;;;;5114101;28;19907;-85
2021/01/04 05:07:41;;;;;;;;;;;3.00;99.90;;;;;;5096507;28;19911;-85
2021/01/04 05:10:25;;;;;;;;;;;3.00;99.90;;;;;;5097223;28;19915;-85
2021/01/04 05:13:17;;;;;;;;;;;3.00;99.90;;;;;;5113020;28;20424;-85
2021/01/04 05:15:50;;;;;;;;;;;3.10;99.90;;;;;;5114205;28;20006;-86
2021/01/04 05:18:37;;;;;;;;;;;3.10;99.90;;;;;;5093023;28;19915;-86
2021/01/04 05:21:13;;;;;;;;;;;3.10;99.90;;;;;;5091581;28;19920;-85
2021/01/04 05:23:44;;;;;;;;;;;3.10;99.90;;;;;;5093802;28;19908;-85
2021/01/04 05:26:15;;;;;;;;;;;3.10;99.90;;;;;;5093380;28;19909;-85
2021/01/04 05:28:50;;;;;;;;;;;3.10;99.90;;;;;;5093650;28;20006;-85
2021/01/04 05:31:39;;;;;;;;;;;3.10;99.90;;;;;;5093401;28;20839;-85
2021/01/04 05:34:27;;;;;;;;;;;3.10;99.90;;;;;;5076227;28;19912;-85
2021/01/04 05:37:07;;;;;;;;;;;3.10;99.90;;;;;;5111216;27;19914;-85
2021/01/04 05:40:02;;;;;;;;;;;3.10;99.90;;;;;;5118368;27;19907;-85
2021/01/04 05:42:36;;;;;;;;;;;3.10;99.90;;;;;;5115206;27;19934;-85
2021/01/04 05:45:11;;;;;;;;;;;3.10;99.90;;;;;;5118244;27;19911;-84
2021/01/04 05:47:43;;;;;;;;;;;3.10;99.90;;;;;;5117957;27;19907;-85
2021/01/04 05:50:32;;;;;;;;;;;3.10;99.90;;;;;;5136072;27;19969;-84
2021/01/04 05:53:08;;;;;;;;;;;3.10;99.90;;;;;;5124933;27;19919;-85
2021/01/04 05:55:38;;;;;;;;;;;3.10;99.90;;;;;;5117670;27;19908;-85
2021/01/04 05:58:24;;;;;;;;;;;3.10;99.90;;;;;;5113372;27;20006;-85
2021/01/04 06:00:52;;;;;;;;;;;3.10;99.90;;;;;;5135958;27;19908;-85
2021/01/04 06:03:22;;;;;;;;;;;3.10;99.90;;;;;;5134680;27;20044;-85
2021/01/04 06:05:53;;;;;;;;;;;3.10;99.90;;;;;;5135703;27;19911;-85
2021/01/04 06:08:24;;;;;;;;;;;3.10;99.90;;;;;;5118071;27;19907;-86
2021/01/04 06:11:11;;;;;;;;;;;3.10;99.90;;;;;;5117144;27;20006;-86
2021/01/04 06:13:45;;;;;;;;;;;3.10;99.90;;;;;;5117056;27;19956;-85
2021/01/04 06:16:15;;;;;;;;;;;3.10;99.90;;;;;;5134521;27;20378;-85
2021/01/04 06:18:44;;;;;;;;;;;3.10;99.90;;;;;;5117402;27;20345;-85
2021/01/04 06:21:32;;;;;;;;;;;3.10;99.90;;;;;;5135550;27;19920;-85
2021/01/04 06:24:05;;;;;;;;;;;3.10;99.90;;;;;;5117204;27;20402;-85
2021/01/04 06:26:33;;;;;;;;;;;3.10;99.90;;;;;;5135231;27;19916;-86
2021/01/04 06:28:59;;;;;;;;;;;3.10;99.90;;;;;;5112509;27;19915;-86
2021/01/04 06:31:38;;;;;;;;;;;3.10;99.90;;;;;;5116874;27;19911;-86
2021/01/04 06:34:12;;;;;;;;;;;3.10;99.90;;;;;;5116869;27;19919;-85
2021/01/04 06:36:41;;;;;;;;;;;3.10;99.90;;;;;;5116895;27;19912;-85
2021/01/04 06:39:15;;;;;;;;;;;3.10;99.90;;;;;;5130602;27;19930;-85
2021/01/04 06:41:41;;;;;;;;;;;3.10;99.90;;;;;;5114671;27;19918;-86
2021/01/04 06:44:35;;;;;;;;;;;3.10;99.90;;;;;;5117128;27;20002;-86
2021/01/04 06:47:20;;;;;;;;;;;3.10;99.90;;;;;;5114359;27;20403;-87
2021/01/04 06:50:10;;;;;;;;;;;3.10;99.90;;;;;;5116985;27;19908;-88
2021/01/04 06:53:11;;;;;;;;;;;3.20;99.90;;;;;;5134384;27;20018;-89
2021/01/04 06:55:39;;;;;;;;;;;3.10;99.90;;;;;;5092675;28;19920;-87
2021/01/04 06:58:08;;;;;;;;;;;3.20;99.90;;;;;;5092317;28;19908;-89
2021/01/04 07:01:06;;;;;;;;;;;3.20;99.90;;;;;;5092151;28;19977;-88
2021/01/04 07:03:45;;;;;;;;;;;3.10;99.90;;;;;;5075611;28;19908;-87
2021/01/04 07:06:37;;;;;;;;;;;3.10;99.90;;;;;;5092265;28;19997;-88
2021/01/04 07:09:08;;;;;;;;;;;3.20;99.90;;;;;;5092336;28;19908;-87
2021/01/04 07:11:55;;;;;;;;;;;3.10;99.90;;;;;;5092080;28;19912;-89
2021/01/04 07:14:33;;;;;;;;;;;3.10;99.90;;;;;;5092166;28;19908;-89
2021/01/04 07:17:14;;;;;;;;;;;3.10;99.90;;;;;;5092440;28;19908;-88
2021/01/04 07:19:47;;;;;;;;;;;3.10;99.90;;;;;;5091995;28;19908;-89
2021/01/04 07:22:21;;;;;;;;;;;3.20;99.90;;;;;;5091625;28;19920;-88
2021/01/04 07:24:47;;;;;;;;;;;3.20;99.90;;;;;;5071564;28;19912;-87
2021/01/04 07:27:22;;;;;;;;;;;3.10;99.90;;;;;;5111564;28;20009;-89
2021/01/04 07:29:53;;;;;;;;;;;3.10;99.90;;;;;;5134966;27;20013;-87
2021/01/04 07:32:24;;;;;;;;;;;3.10;99.90;;;;;;5120509;27;19912;-88
2021/01/04 07:35:16;;;;;;;;;;;3.20;99.90;;;;;;5120761;27;19907;-87
2021/01/04 07:38:02;;;;;;;;;;;3.10;99.90;;;;;;5116087;27;19914;-88
2021/01/04 07:40:45;;;;;;;;;;;3.20;99.90;;;;;;5120963;27;19970;-89
2021/01/04 07:43:16;;;;;;;;;;;3.20;99.90;;;;;;5121417;27;19913;-88
2021/01/04 07:46:04;;;;;;;;;;;3.10;99.90;;;;;;5120769;27;19908;-88
2021/01/04 07:48:58;;;;;;;;;;;3.10;99.90;;;;;;5088277;27;19929;-87
2021/01/04 07:52:01;;;;;;;;;;;3.10;99.90;;;;;;5116617;27;19935;-88
2021/01/04 07:54:45;;;;;;;;;;;3.10;99.90;;;;;;5018534;28;20004;-88
2021/01/04 07:57:45;;;;;;;;;;;3.10;99.90;;;;;;5113665;27;19908;-86
2021/01/04 08:00:29;;;;;;;;;;;3.20;99.90;;;;;;5042619;28;19908;-87
2021/01/04 08:03:14;;;;;;;;;;;3.10;99.90;;;;;;5078954;28;19912;-89
2021/01/04 08:05:50;;;;;;;;;;;3.20;99.90;;;;;;5078741;28;19931;-88
2021/01/04 08:08:41;;;;;;;;;;;3.20;99.90;;;;;;5079119;28;19908;-88
2021/01/04 08:11:26;;;;;;;;;;;3.20;99.90;;;;;;5030646;28;19912;-88
2021/01/04 08:13:57;;;;;;;;;;;3.20;99.90;;;;;;5078395;28;19923;-88
2021/01/04 08:16:29;;;;;;;;;;;3.20;99.90;;;;;;5078903;28;19908;-89
2021/01/04 08:18:58;;;;;;;;;;;3.20;99.90;;;;;;5070882;28;19912;-88
2021/01/04 08:21:38;;;;;;;;;;;3.20;99.90;;;;;;5075537;28;19986;-88
2021/01/04 08:24:08;;;;;;;;;;;3.20;99.90;;;;;;5103406;27;19912;-87
2021/01/04 08:26:58;;;;;;;;;;;3.20;99.90;;;;;;5138288;27;20268;-87
2021/01/04 08:29:44;;;;;;;;;;;3.20;99.90;;;;;;5110975;28;19911;-88
2021/01/04 08:32:46;;;;;;;;;;;3.30;99.90;;;;;;5115785;28;19961;-87
2021/01/04 08:35:18;;;;;;;;;;;3.30;99.90;;;;;;5018170;28;19913;-88
2021/01/04 08:37:50;;;;;;;;;;;3.20;99.90;;;;;;5050784;28;19915;-88
2021/01/04 08:40:34;;;;;;;;;;;3.20;99.90;;;;;;5098578;28;19983;-88
2021/01/04 08:43:09;;;;;;;;;;;3.20;99.90;;;;;;5098226;28;19907;-88
2021/01/04 08:45:36;;;;;;;;;;;3.30;99.90;;;;;;5098052;28;19991;-88
2021/01/04 08:48:18;;;;;;;;;;;3.20;99.90;;;;;;5093631;28;20087;-87
2021/01/04 08:51:04;;;;;;;;;;;3.20;99.90;;;;;;5098186;28;19924;-88
2021/01/04 08:53:36;;;;;;;;;;;3.20;99.90;;;;;;5073920;28;19912;-86
2021/01/04 08:56:22;;;;;;;;;;;3.30;99.90;;;;;;5055262;28;19912;-87
2021/01/04 08:58:47;;;;;;;;;;;3.30;99.90;;;;;;5054914;28;19927;-87
2021/01/04 09:01:23;;;;;;;;;;;3.30;99.90;;;;;;5087169;28;20376;-86
2021/01/04 09:03:48;;;;;;;;;;;3.30;99.90;;;;;;5088320;28;19931;-87
2021/01/04 09:06:25;;;;;;;;;;;3.30;99.90;;;;;;5077391;28;19908;-86
2021/01/04 09:08:52;;;;;;;;;;;3.30;99.90;;;;;;5077326;28;19908;-87
2021/01/04 09:11:18;;;;;;;;;;;3.30;99.90;;;;;;5094347;28;19923;-87
2021/01/04 09:13:48;;;;;;;;;;;3.40;99.90;;;;;;5088446;28;20315;-86
2021/01/04 09:16:37;;;;;;;;;;;3.30;99.90;;;;;;5077321;28;19908;-87
2021/01/04 09:19:06;;;;;;;;;;;3.30;99.90;;;;;;5094220;28;19912;-87
2021/01/04 09:21:39;;;;;;;;;;;3.30;99.90;;;;;;5077022;28;19920;-88
2021/01/04 09:24:16;;;;;;;;;;;3.30;99.90;;;;;;5091075;27;19912;-88
2021/01/04 09:26:42;;;;;;;;;;;3.30;99.90;;;;;;5132335;27;20018;-87
2021/01/04 09:29:13;;;;;;;;;;;3.30;99.90;;;;;;5118495;27;19950;-87
2021/01/04 09:31:47;;;;;;;;;;;3.30;99.90;;;;;;5118720;27;19938;-87
2021/01/04 09:34:21;;;;;;;;;;;3.40;99.90;;;;;;5118789;27;19908;-87
2021/01/04 09:36:47;;;;;;;;;;;3.40;99.90;;;;;;5119092;27;19998;-87
2021/01/04 09:39:15;;;;;;;;;;;3.40;99.90;;;;;;5118761;27;19951;-87
2021/01/04 09:41:58;;;;;;;;;;;3.40;99.90;;;;;;5136213;27;19958;-86
2021/01/04 09:44:28;;;;;;;;;;;3.40;99.90;;;;;;5118433;27;19911;-87
2021/01/04 09:47:03;;;;;;;;;;;3.40;99.90;;;;;;5118724;27;19907;-86
2021/01/04 09:49:28;;;;;;;;;;;3.50;99.90;;;;;;5118422;27;20364;-87
2021/01/04 09:52:07;;;;;;;;;;;3.60;99.90;;;;;;5118443;27;19923;-87
2021/01/04 09:54:42;;;;;;;;;;;3.60;99.90;;;;;;5092914;28;19965;-87
2021/01/04 09:57:11;;;;;;;;;;;3.60;99.90;;;;;;5089964;28;19912;-87
2021/01/04 09:59:40;;;;;;;;;;;3.60;99.90;;;;;;5093588;28;19908;-87
2021/01/04 10:02:16;;;;;;;;;;;3.60;99.90;;;;;;5089173;28;20003;-88
2021/01/04 10:04:44;;;;;;;;;;;3.70;99.90;;;;;;5088121;28;19915;-88
2021/01/04 10:07:24;;;;;;;;;;;3.70;99.90;;;;;;5093351;28;19908;-87
2021/01/04 10:09:52;;;;;;;;;;;3.70;99.90;;;;;;5093334;28;19908;-87
2021/01/04 10:12:23;;;;;;;;;;;3.70;99.90;;;;;;5088691;28;20319;-87
2021/01/04 10:14:56;;;;;;;;;;;3.70;99.90;;;;;;5093154;28;19961;-86
2021/01/04 10:17:24;;;;;;;;;;;3.70;99.90;;;;;;5093135;28;19908;-87
2021/01/04 10:19:53;;;;;;;;;;;3.80;99.90;;;;;;5088695;28;20407;-87
2021/01/04 10:22:26;;;;;;;;;;;3.80;99.90;;;;;;5088325;28;19969;-87
2021/01/04 10:25:17;;;;;;;;;;;3.80;99.90;;;;;;5096807;27;19958;-87
2021/01/04 10:27:50;;;;;;;;;;;3.80;99.90;;;;;;5120489;27;19934;-87
2021/01/04 10:30:23;;;;;;;;;;;3.80;99.90;;;;;;5117792;27;19907;-87
2021/01/04 10:33:08;;;;;;;;;;;3.80;99.90;;;;;;5117659;27;19919;-87
2021/01/04 10:35:36;;;;;;;;;;;3.80;99.90;;;;;;5134950;27;20010;-86
2021/01/04 10:38:12;;;;;;;;;;;3.80;99.90;;;;;;5117281;27;20360;-87
2021/01/04 10:40:42;;;;;;;;;;;3.80;99.90;;;;;;5117487;27;19908;-87
2021/01/04 10:43:15;;;;;;;;;;;3.80;99.90;;;;;;5117316;27;19912;-87
2021/01/04 10:45:44;;;;;;;;;;;3.80;99.90;;;;;;5117468;27;19914;-86
2021/01/04 10:48:21;;;;;;;;;;;3.70;99.90;;;;;;5112619;27;19916;-87
2021/01/04 10:50:48;;;;;;;;;;;3.80;99.90;;;;;;5117102;28;19907;-87
2021/01/04 10:53:34;;;;;;;;;;;3.70;99.90;;;;;;5117427;27;20465;-87
2021/01/04 10:56:18;;;;;;;;;;;3.70;99.90;;;;;;5117502;28;19908;-87
2021/01/04 10:58:53;;;;;;;;;;;3.70;99.90;;;;;;5135065;27;20002;-87
2021/01/04 11:01:22;;;;;;;;;;;3.70;99.90;;;;;;5117077;27;19919;-86
2021/01/04 11:04:01;;;;;;;;;;;3.70;99.90;;;;;;5117344;28;19947;-86
2021/01/04 11:06:33;;;;;;;;;;;3.70;99.90;;;;;;5116555;27;19911;-87
2021/01/04 11:09:12;;;;;;;;;;;3.70;99.90;;;;;;5135029;27;19908;-87
2021/01/04 11:11:45;;;;;;;;;;;3.70;99.90;;;;;;5116621;28;19972;-86
2021/01/04 11:14:14;;;;;;;;;;;3.70;99.90;;;;;;5116151;28;19911;-87
2021/01/04 11:16:45;;;;;;;;;;;3.70;99.90;;;;;;5135247;28;19907;-88
2021/01/04 11:19:38;;;;;;;;;;;3.60;99.90;;;;;;5133610;28;20352;-87
2021/01/04 11:22:30;;;;;;;;;;;3.60;99.90;;;;;;5134886;27;19923;-87
2021/01/04 11:25:02;;;;;;;;;;;3.70;99.90;;;;;;5135052;28;19911;-87
2021/01/04 11:27:31;;;;;;;;;;;3.60;99.90;;;;;;5135244;28;19907;-87
2021/01/04 11:29:57;;;;;;;;;;;3.60;99.90;;;;;;5089449;28;19916;-88
2021/01/04 11:32:40;;;;;;;;;;;3.70;99.90;;;;;;5069706;28;19912;-86
2021/01/04 11:35:22;;;;;;;;;;;3.70;99.90;;;;;;5090838;28;19915;-87
2021/01/04 11:37:52;;;;;;;;;;;3.70;99.90;;;;;;5074876;28;19908;-88
2021/01/04 11:40:23;;;;;;;;;;;3.70;99.90;;;;;;5091838;28;20042;-87
2021/01/04 11:42:52;;;;;;;;;;;3.80;99.90;;;;;;5091506;28;19912;-88
2021/01/04 11:45:28;;;;;;;;;;;3.80;99.90;;;;;;5071606;28;19909;-87
2021/01/04 11:47:56;;;;;;;;;;;3.80;99.90;;;;;;5054823;28;19908;-88
2021/01/04 11:50:30;;;;;;;;;;;3.80;99.90;;;;;;5071733;28;20003;-88
2021/01/04 11:53:07;;;;;;;;;;;3.80;99.90;;;;;;5052688;28;19916;-88
2021/01/04 11:56:01;;;;;;;;;;;3.70;99.90;;;;;;5091888;28;19908;-88
2021/01/04 11:58:51;;;;;;;;;;;3.80;99.90;;;;;;5094910;28;19915;-87
2021/01/04 12:01:24;;;;;;;;;;;3.80;99.90;;;;;;5094717;28;20372;-87
2021/01/04 12:03:56;;;;;;;;;;;3.80;99.90;;;;;;5079037;28;19918;-87
2021/01/04 12:06:24;;;;;;;;;;;3.80;99.90;;;;;;5034810;28;20388;-87
2021/01/04 12:08:53;;;;;;;;;;;3.80;99.90;;;;;;5030819;28;19909;-87
2021/01/04 12:11:24;;;;;;;;;;;3.80;99.90;;;;;;5031460;28;19916;-86
2021/01/04 12:13:52;;;;;;;;;;;3.70;99.90;;;;;;5029781;28;19959;-86
2021/01/04 12:16:29;;;;;;;;;;;3.80;99.90;;;;;;5015486;28;20400;-87
2021/01/04 12:18:58;;;;;;;;;;;3.80;99.90;;;;;;5032409;28;19913;-87
2021/01/04 12:21:26;;;;;;;;;;;3.70;99.90;;;;;;5034773;28;19912;-87
2021/01/04 12:23:57;;;;;;;;;;;3.70;99.90;;;;;;5034806;28;19928;-87
2021/01/04 12:26:49;;;;;;;;;;;3.70;99.90;;;;;;5035045;28;19952;-87
2021/01/04 12:29:20;;;;;;;;;;;3.70;99.90;;;;;;5016001;28;19931;-89
2021/01/04 12:31:54;;;;;;;;;;;3.70;99.90;;;;;;5018364;28;19913;-88
2021/01/04 12:34:31;;;;;;;;;;;3.70;99.90;;;;;;5018256;28;19968;-87
2021/01/04 12:36:57;;;;;;;;;;;3.70;99.90;;;;;;5003200;28;19913;-89
2021/01/04 12:39:29;;;;;;;;;;;3.70;99.90;;;;;;5015341;28;19910;-88
2021/01/04 12:41:59;;;;;;;;;;;3.80;99.90;;;;;;5015049;28;19910;-88
2021/01/04 12:44:30;;;;;;;;;;;3.80;99.90;;;;;;4982758;28;19910;-86
2021/01/04 12:47:07;;;;;;;;;;;3.80;99.90;;;;;;4956383;29;19918;-87
2021/01/04 12:49:39;;;;;;;;;;;3.80;99.90;;;;;;4956389;29;19911;-87
2021/01/04 12:52:12;;;;;;;;;;;3.80;99.90;;;;;;4956045;29;19918;-87
2021/01/04 12:54:58;;;;;;;;;;;3.80;99.90;;;;;;4955109;29;19966;-87
2021/01/04 12:57:29;;;;;;;;;;;3.80;99.90;;;;;;4937178;29;19914;-87
2021/01/04 13:00:23;;;;;;;;;;;3.80;99.90;;;;;;4936907;29;19911;-88
2021/01/04 13:03:11;;;;;;;;;;;3.80;99.90;;;;;;4936601;29;19911;-89
2021/01/04 13:06:05;;;;;;;;;;;3.80;99.90;;;;;;4934671;29;20392;-88
2021/01/04 13:08:47;;;;;;;;;;;3.80;99.90;;;;;;4936556;29;19962;-87
2021/01/04 13:11:17;;;;;;;;;;;3.70;99.90;;;;;;4934912;29;19910;-88
2021/01/04 13:13:58;;;;;;;;;;;3.70;99.90;;;;;;4920778;29;19915;-87
2021/01/04 13:16:24;;;;;;;;;;;3.70;99.90;;;;;;4956449;28;19918;-87
2021/01/04 13:18:58;;;;;;;;;;;3.70;99.90;;;;;;4959197;28;19917;-88
2021/01/04 13:21:31;;;;;;;;;;;3.70;99.90;;;;;;4977475;28;19914;-87
2021/01/04 13:23:59;;;;;;;;;;;3.60;99.90;;;;;;4958737;28;19922;-89
2021/01/04 13:26:26;;;;;;;;;;;3.60;99.90;;;;;;4991354;28;19976;-87
2021/01/04 13:28:54;;;;;;;;;;;3.60;99.90;;;;;;5016799;28;20406;-88
2021/01/04 13:31:27;;;;;;;;;;;3.60;99.90;;;;;;5017128;28;19913;-87
2021/01/04 13:33:56;;;;;;;;;;;3.60;99.90;;;;;;5050356;28;19936;-87
2021/01/04 13:36:25;;;;;;;;;;;3.60;99.90;;;;;;5047542;28;19953;-87
2021/01/04 13:38:50;;;;;;;;;;;3.50;99.90;;;;;;5033604;28;20727;-88
2021/01/04 13:41:25;;;;;;;;;;;3.50;99.90;;;;;;5050675;28;19959;-88
2021/01/04 13:43:50;;;;;;;;;;;3.50;99.90;;;;;;5046527;28;19910;-87
2021/01/04 13:46:36;;;;;;;;;;;3.50;99.90;;;;;;5029384;28;19909;-87
2021/01/04 13:49:05;;;;;;;;;;;3.50;99.90;;;;;;5016387;28;20011;-87
2021/01/04 13:51:35;;;;;;;;;;;3.50;99.90;;;;;;5050829;28;19917;-88
2021/01/04 13:54:03;;;;;;;;;;;3.50;99.90;;;;;;5057562;28;20275;-86
2021/01/04 13:56:42;;;;;;;;;;;3.50;99.90;;;;;;5114267;28;19965;-87
2021/01/04 13:59:10;;;;;;;;;;;3.50;99.90;;;;;;5113611;28;20076;-87
2021/01/04 14:01:37;;;;;;;;;;;3.50;99.90;;;;;;5108781;28;19987;-88
2021/01/04 14:04:05;;;;;;;;;;;3.50;99.90;;;;;;5114461;28;19911;-87
2021/01/04 14:06:37;;;;;;;;;;;3.50;99.90;;;;;;5110696;28;19961;-87
2021/01/04 14:09:08;;;;;;;;;;;3.50;99.90;;;;;;5115576;28;19911;-87
2021/01/04 14:11:34;;;;;;;;;;;3.50;99.90;;;;;;5114316;28;19912;-86
2021/01/04 14:14:08;;;;;;;;;;;3.50;99.90;;;;;;5111922;28;19912;-87
2021/01/04 14:16:38;;;;;;;;;;;3.60;99.90;;;;;;5114469;28;19914;-87
2021/01/04 14:19:23;;;;;;;;;;;3.60;99.90;;;;;;5114111;28;19914;-87
2021/01/04 14:21:52;;;;;;;;;;;3.60;99.90;;;;;;5115152;27;19927;-87
2021/01/04 14:24:25;;;;;;;;;;;3.60;99.90;;;;;;5117144;27;19911;-86
2021/01/04 14:27:04;;;;;;;;;;;3.60;99.90;;;;;;5115075;27;19912;-87
2021/01/04 14:29:41;;;;;;;;;;;3.60;99.90;;;;;;5115250;27;19964;-86
2021/01/04 14:32:10;;;;;;;;;;;3.50;99.90;;;;;;5113949;27;20374;-86
2021/01/04 14:34:37;;;;;;;;;;;3.50;99.90;;;;;;5130607;27;19998;-86
2021/01/04 14:37:02;;;;;;;;;;;3.50;99.90;;;;;;5112525;27;19957;-86
2021/01/04 14:39:28;;;;;;;;;;;3.50;99.90;;;;;;5117174;27;19915;-87
2021/01/04 14:42:01;;;;;;;;;;;3.50;99.90;;;;;;5112821;27;19942;-86
2021/01/04 14:44:36;;;;;;;;;;;3.50;99.90;;;;;;5117128;27;19961;-85
2021/01/04 14:47:06;;;;;;;;;;;3.40;99.90;;;;;;5116940;27;19956;-86
2021/01/04 14:49:35;;;;;;;;;;;3.50;99.90;;;;;;5116815;27;19935;-87
2021/01/04 14:52:06;;;;;;;;;;;3.40;99.90;;;;;;5135647;27;20291;-86
2021/01/04 14:54:34;;;;;;;;;;;3.40;99.90;;;;;;5132017;27;19907;-85
2021/01/04 14:57:06;;;;;;;;;;;3.40;99.90;;;;;;5117543;28;20277;-86
2021/01/04 14:59:38;;;;;;;;;;;3.40;99.90;;;;;;5112842;27;19907;-85
2021/01/04 15:02:24;;;;;;;;;;;3.40;99.90;;;;;;5134985;27;19907;-86
2021/01/04 15:04:56;;;;;;;;;;;3.40;99.90;;;;;;5113963;27;19994;-86
2021/01/04 15:07:27;;;;;;;;;;;3.40;99.90;;;;;;5117051;28;20002;-89
2021/01/04 15:09:55;;;;;;;;;;;3.40;99.90;;;;;;5114418;27;19914;-88
2021/01/04 15:12:24;;;;;;;;;;;3.40;99.90;;;;;;5117045;28;19926;-87
2021/01/04 15:14:53;;;;;;;;;;;3.30;99.90;;;;;;5117056;28;19915;-86
2021/01/04 15:17:18;;;;;;;;;;;3.30;99.90;;;;;;5117087;28;19912;-86
2021/01/04 15:19:44;;;;;;;;;;;3.30;99.90;;;;;;5112144;28;20360;-86
2021/01/04 15:22:09;;;;;;;;;;;3.30;99.90;;;;;;5112146;28;19919;-87